createdAt,value
2023-12-12T00:00:10.918Z,4.41
2023-12-12T00:02:37.547Z,4.48
2023-12-12T00:05:04.752Z,4.25
2023-12-12T00:07:31.676Z,4.17
2023-12-12T00:09:58.671Z,4.09
2023-12-12T00:12:25.489Z,4.20
2023-12-12T00:14:52.120Z,4.24
2023-12-12T00:17:18.982Z,4.28
2023-12-12T00:19:45.874Z,4.21
2023-12-12T00:22:13.007Z,4.23
2023-12-12T00:24:39.719Z,4.04
2023-12-12T00:27:06.523Z,3.65
2023-12-12T00:29:36.999Z,3.73
2023-12-12T00:32:04.270Z,3.76
2023-12-12T00:34:31.568Z,3.80
2023-12-12T00:36:58.414Z,3.87
2023-12-12T00:39:27.969Z,3.83
2023-12-12T00:41:56.009Z,3.86
2023-12-12T00:44:22.706Z,3.93
2023-12-12T00:46:49.552Z,4.20
2023-12-12T00:49:16.489Z,4.14
2023-12-12T00:51:43.314Z,3.99
2023-12-12T00:54:10.038Z,4.06
2023-12-12T00:56:36.750Z,4.08
2023-12-12T00:59:03.630Z,4.05
2023-12-12T01:01:30.451Z,4.02
2023-12-12T01:03:57.353Z,4.06
2023-12-12T01:06:28.874Z,4.13
2023-12-12T01:08:56.666Z,3.72
2023-12-12T01:11:23.481Z,3.76
2023-12-12T01:13:50.215Z,3.74
2023-12-12T01:16:17.031Z,3.82
2023-12-12T01:18:43.872Z,3.81
2023-12-12T01:21:10.820Z,3.90
2023-12-12T01:23:54.081Z,3.99
2023-12-12T01:26:23.162Z,4.04
2023-12-12T01:28:51.007Z,4.04
2023-12-12T01:31:19.355Z,4.10
2023-12-12T01:33:46.691Z,3.99
2023-12-12T01:36:13.716Z,3.96
2023-12-12T01:38:40.506Z,4.00
2023-12-12T01:41:07.397Z,4.12
2023-12-12T01:43:34.758Z,4.12
2023-12-12T01:46:03.645Z,4.10
2023-12-12T01:48:32.691Z,4.13
2023-12-12T01:51:00.995Z,4.13
2023-12-12T01:53:40.581Z,4.18
2023-12-12T01:56:08.022Z,3.38
2023-12-12T01:58:37.106Z,3.24
2023-12-12T02:01:04.961Z,3.07
2023-12-12T02:03:32.786Z,3.24
2023-12-12T02:06:00.529Z,3.29
2023-12-12T02:08:27.567Z,3.32
2023-12-12T02:10:55.087Z,3.39
2023-12-12T02:13:22.272Z,3.43
2023-12-12T02:15:49.602Z,3.52
2023-12-12T02:18:16.496Z,3.66
2023-12-12T02:20:44.314Z,3.95
2023-12-12T02:23:11.269Z,4.13
2023-12-12T02:25:39.417Z,4.22
2023-12-12T02:28:07.925Z,4.29
2023-12-12T02:30:36.511Z,4.41
2023-12-12T02:33:05.358Z,4.47
2023-12-12T02:35:32.562Z,4.53
2023-12-12T02:37:59.465Z,4.72
2023-12-12T02:40:26.497Z,4.47
2023-12-12T02:42:54.035Z,4.33
2023-12-12T02:45:20.915Z,4.46
2023-12-12T02:47:47.704Z,4.56
2023-12-12T02:50:14.707Z,4.53
2023-12-12T02:52:41.598Z,4.61
2023-12-12T02:55:08.870Z,4.72
2023-12-12T02:57:35.710Z,4.30
2023-12-12T03:00:03.440Z,4.49
2023-12-12T03:02:30.396Z,3.73
2023-12-12T03:04:58.193Z,3.73
2023-12-12T03:07:25.624Z,3.64
2023-12-12T03:09:52.518Z,3.85
2023-12-12T03:12:19.397Z,3.44
2023-12-12T03:14:46.190Z,3.33
2023-12-12T03:17:13.044Z,3.32
2023-12-12T03:19:40.152Z,3.67
2023-12-12T03:22:07.187Z,3.83
2023-12-12T03:24:33.988Z,4.02
2023-12-12T03:27:00.766Z,4.01
2023-12-12T03:29:29.453Z,4.18
2023-12-12T03:31:56.870Z,3.68
2023-12-12T03:34:23.718Z,3.78
2023-12-12T03:36:50.902Z,3.75
2023-12-12T03:39:17.808Z,3.75
2023-12-12T03:41:45.094Z,3.77
2023-12-12T03:44:11.927Z,3.59
2023-12-12T03:46:38.621Z,3.66
2023-12-12T03:49:06.273Z,3.79
2023-12-12T03:51:33.124Z,3.87
2023-12-12T03:54:00.160Z,4.06
2023-12-12T03:56:27.056Z,3.90
2023-12-12T03:58:53.843Z,3.98
2023-12-12T04:01:21.082Z,3.72
2023-12-12T04:03:47.905Z,3.85
2023-12-12T04:06:15.001Z,3.98
2023-12-12T04:08:41.845Z,3.82
2023-12-12T04:11:09.026Z,3.39
2023-12-12T04:13:35.774Z,3.31
2023-12-12T04:16:02.543Z,3.14
2023-12-12T04:18:29.607Z,3.23
2023-12-12T04:20:56.516Z,3.51
2023-12-12T04:23:23.200Z,3.71
2023-12-12T04:25:50.116Z,3.37
2023-12-12T04:28:16.973Z,3.59
2023-12-12T04:30:43.795Z,3.70
2023-12-12T04:33:10.676Z,3.81
2023-12-12T04:35:37.566Z,3.49
2023-12-12T04:38:04.265Z,2.91
2023-12-12T04:40:31.409Z,3.10
2023-12-12T04:42:58.337Z,3.09
2023-12-12T04:45:25.145Z,3.03
2023-12-12T04:47:52.297Z,3.09
2023-12-12T04:50:19.355Z,3.03
2023-12-12T04:52:48.312Z,3.10
2023-12-12T04:55:15.387Z,3.23
2023-12-12T04:57:46.570Z,3.23
2023-12-12T05:00:17.064Z,2.98
2023-12-12T05:02:43.899Z,2.30
2023-12-12T05:05:10.774Z,2.30
2023-12-12T05:07:37.775Z,2.18
2023-12-12T05:10:05.560Z,1.87
2023-12-12T05:12:34.973Z,2.02
2023-12-12T05:15:03.609Z,2.03
2023-12-12T05:17:31.240Z,1.82
2023-12-12T05:20:00.864Z,1.46
2023-12-12T05:22:27.770Z,1.51
2023-12-12T05:24:57.659Z,1.62
2023-12-12T05:27:24.407Z,1.40
2023-12-12T05:29:51.486Z,1.58
2023-12-12T05:32:18.275Z,1.77
2023-12-12T05:34:45.070Z,1.77
2023-12-12T05:37:12.373Z,1.72
2023-12-12T05:39:39.352Z,1.86
2023-12-12T05:42:06.911Z,1.57
2023-12-12T05:44:33.698Z,1.64
2023-12-12T05:47:00.571Z,1.62
2023-12-12T05:49:27.781Z,1.43
2023-12-12T05:51:54.931Z,1.28
2023-12-12T05:54:24.955Z,1.40
2023-12-12T05:56:53.333Z,1.19
2023-12-12T05:59:20.205Z,0.95
2023-12-12T06:01:46.990Z,1.22
2023-12-12T06:04:14.611Z,1.41
2023-12-12T06:06:43.615Z,1.34
2023-12-12T06:09:14.654Z,1.23
2023-12-12T06:11:43.439Z,1.27
2023-12-12T06:14:10.715Z,1.05
2023-12-12T06:16:39.312Z,0.95
2023-12-12T06:19:06.936Z,0.95
2023-12-12T06:21:34.872Z,1.04
2023-12-12T06:24:03.594Z,1.33
2023-12-12T06:26:31.341Z,1.36
2023-12-12T06:28:58.106Z,1.53
2023-12-12T06:31:25.134Z,1.53
2023-12-12T06:33:53.777Z,1.65
2023-12-12T06:36:21.013Z,1.70
2023-12-12T06:38:47.811Z,1.44
2023-12-12T06:41:14.585Z,0.79
2023-12-12T06:43:41.304Z,0.80
2023-12-12T06:46:09.462Z,0.51
2023-12-12T06:48:38.420Z,0.62
2023-12-12T06:51:06.357Z,0.81
2023-12-12T06:53:33.701Z,1.06
2023-12-12T06:56:00.524Z,1.25
2023-12-12T06:58:27.382Z,1.48
2023-12-12T07:00:54.244Z,1.76
2023-12-12T07:03:21.088Z,1.91
2023-12-12T07:05:48.209Z,2.12
2023-12-12T07:08:15.230Z,1.71
2023-12-12T07:10:42.655Z,1.74
2023-12-12T07:13:09.517Z,1.41
2023-12-12T07:15:36.437Z,1.43
2023-12-12T07:18:03.280Z,1.17
2023-12-12T07:20:30.059Z,1.09
2023-12-12T07:22:57.004Z,1.24
2023-12-12T07:25:24.058Z,1.27
2023-12-12T07:27:51.926Z,1.31
2023-12-12T07:30:18.967Z,1.45
2023-12-12T07:32:46.046Z,1.49
2023-12-12T07:35:12.872Z,1.87
2023-12-12T07:37:39.843Z,1.94
2023-12-12T07:40:07.759Z,2.00
2023-12-12T07:42:34.592Z,2.10
2023-12-12T07:45:01.381Z,2.37
2023-12-12T07:47:34.371Z,2.29
2023-12-12T07:50:10.014Z,2.40
2023-12-12T07:52:37.624Z,2.51
2023-12-12T07:55:04.916Z,2.84
2023-12-12T07:57:32.980Z,3.05
2023-12-12T07:59:59.913Z,2.73
2023-12-12T08:02:26.761Z,2.51
2023-12-12T08:04:53.591Z,2.58
2023-12-12T08:07:21.541Z,2.53
2023-12-12T08:09:48.349Z,1.97
2023-12-12T08:12:15.128Z,2.03
2023-12-12T08:14:44.077Z,2.33
2023-12-12T08:17:12.083Z,2.39
2023-12-12T08:19:39.678Z,2.42
2023-12-12T08:22:06.558Z,1.76
2023-12-12T08:24:33.311Z,1.89
2023-12-12T08:27:00.286Z,2.32
2023-12-12T08:29:29.259Z,2.59
2023-12-12T08:31:56.935Z,2.81
2023-12-12T08:34:24.999Z,2.94
2023-12-12T08:36:51.856Z,2.98
2023-12-12T08:39:18.657Z,3.40
2023-12-12T08:41:45.890Z,3.79
2023-12-12T08:44:12.642Z,3.89
2023-12-12T08:46:39.461Z,4.31
2023-12-12T08:49:06.568Z,4.36
2023-12-12T08:51:34.426Z,4.28
2023-12-12T08:54:02.425Z,3.85
2023-12-12T08:56:29.316Z,3.99
2023-12-12T08:58:56.348Z,4.29
2023-12-12T09:01:26.565Z,4.56
2023-12-12T09:03:54.710Z,4.21
2023-12-12T09:06:21.933Z,4.11
2023-12-12T09:08:49.219Z,3.02
2023-12-12T09:11:16.156Z,2.08
2023-12-12T09:13:46.157Z,1.65
2023-12-12T09:16:13.189Z,1.30
2023-12-12T09:18:40.043Z,1.40
2023-12-12T09:21:08.219Z,1.57
2023-12-12T09:23:35.956Z,1.85
2023-12-12T09:26:03.050Z,2.09
2023-12-12T09:28:29.857Z,2.35
2023-12-12T09:30:56.987Z,2.49
2023-12-12T09:33:24.332Z,2.88
2023-12-12T09:35:51.477Z,3.12
2023-12-12T09:38:18.289Z,3.34
2023-12-12T09:40:45.245Z,3.47
2023-12-12T09:43:13.666Z,3.52
2023-12-12T09:45:47.122Z,3.48
2023-12-12T09:48:15.562Z,3.42
2023-12-12T09:50:48.505Z,3.35
2023-12-12T09:53:15.750Z,3.62
2023-12-12T09:55:42.694Z,3.70
2023-12-12T09:58:09.675Z,4.00
2023-12-12T10:00:36.535Z,4.40
2023-12-12T10:03:06.848Z,4.27
2023-12-12T10:05:39.442Z,4.19
2023-12-12T10:08:14.086Z,4.10
2023-12-12T10:10:43.176Z,4.25
2023-12-12T10:13:10.280Z,4.62
2023-12-12T10:15:37.109Z,4.76
2023-12-12T10:18:04.042Z,5.24
2023-12-12T10:20:32.468Z,5.63
2023-12-12T10:23:01.321Z,5.81
2023-12-12T10:25:33.306Z,6.33
2023-12-12T10:28:00.944Z,6.57
2023-12-12T10:30:28.523Z,6.19
2023-12-12T10:32:56.910Z,6.14
2023-12-12T10:35:25.556Z,6.05
2023-12-12T10:37:54.362Z,6.57
2023-12-12T10:40:23.928Z,6.88
2023-12-12T10:42:54.918Z,7.19
2023-12-12T10:45:22.319Z,7.54
2023-12-12T10:47:54.755Z,7.37
2023-12-12T10:50:21.645Z,7.38
2023-12-12T10:52:50.966Z,7.75
2023-12-12T10:55:21.292Z,7.71
2023-12-12T10:57:49.296Z,8.16
2023-12-12T11:00:19.649Z,8.82
2023-12-12T11:02:49.083Z,9.37
2023-12-12T11:05:16.805Z,9.36
2023-12-12T11:07:49.791Z,10.09
2023-12-12T11:10:20.676Z,10.01
2023-12-12T11:12:54.762Z,10.02
2023-12-12T11:15:25.076Z,10.18
2023-12-12T11:17:53.564Z,11.17
2023-12-12T11:20:21.405Z,11.95
2023-12-12T11:22:50.073Z,11.94
2023-12-12T11:25:21.392Z,12.29
2023-12-12T11:27:52.219Z,12.73
2023-12-12T11:30:20.772Z,12.18
2023-12-12T11:32:48.804Z,12.14
2023-12-12T11:35:33.766Z,12.79
2023-12-12T11:38:04.548Z,13.07
2023-12-12T11:40:33.537Z,14.04
2023-12-12T11:43:20.266Z,14.24
2023-12-12T11:45:47.796Z,14.60
2023-12-12T11:48:15.196Z,15.27
2023-12-12T11:50:43.043Z,14.92
2023-12-12T11:53:10.288Z,15.89
2023-12-12T11:55:44.435Z,16.14
2023-12-12T11:58:13.534Z,16.65
2023-12-12T12:00:44.548Z,15.38
2023-12-12T12:03:11.513Z,15.12
2023-12-12T12:05:38.807Z,15.93
2023-12-12T12:08:06.980Z,16.55
2023-12-12T12:10:34.276Z,16.86
2023-12-12T12:13:02.076Z,17.38
2023-12-12T12:15:29.699Z,17.81
2023-12-12T12:17:58.340Z,17.40
2023-12-12T12:20:25.278Z,16.92
2023-12-12T12:22:53.015Z,16.78
2023-12-12T12:25:24.488Z,17.24
2023-12-12T12:27:53.929Z,17.42
2023-12-12T12:30:21.681Z,17.69
2023-12-12T12:33:18.164Z,18.38
2023-12-12T12:35:52.972Z,18.70
2023-12-12T12:38:27.280Z,18.70
2023-12-12T12:40:54.492Z,18.43
2023-12-12T12:43:24.374Z,17.12
2023-12-12T12:45:52.242Z,17.02
2023-12-12T12:48:21.034Z,16.01
2023-12-12T12:50:51.073Z,15.06
2023-12-12T12:53:18.504Z,15.18
2023-12-12T12:55:46.108Z,13.95
2023-12-12T12:58:14.392Z,13.90
2023-12-12T13:00:45.817Z,13.20
2023-12-12T13:03:14.411Z,13.16
2023-12-12T13:05:41.838Z,13.30
2023-12-12T13:08:08.810Z,13.28
2023-12-12T13:10:46.675Z,13.13
2023-12-12T13:13:17.879Z,13.05
2023-12-12T13:15:44.916Z,13.13
2023-12-12T13:18:11.813Z,13.06
2023-12-12T13:20:38.550Z,12.94
2023-12-12T13:23:05.255Z,12.35
2023-12-12T13:25:32.799Z,12.49
2023-12-12T13:27:59.897Z,12.33
2023-12-12T13:30:26.982Z,11.97
2023-12-12T13:32:54.003Z,12.26
2023-12-12T13:35:33.934Z,12.38
2023-12-12T13:38:04.744Z,12.40
2023-12-12T13:40:32.726Z,12.42
2023-12-12T13:43:00.079Z,12.50
2023-12-12T13:45:26.926Z,12.54
2023-12-12T13:47:53.775Z,12.71
2023-12-12T13:50:20.800Z,12.74
2023-12-12T13:52:47.867Z,12.70
2023-12-12T13:55:14.786Z,12.59
2023-12-12T13:57:41.589Z,12.59
2023-12-12T14:00:10.961Z,12.58
2023-12-12T14:02:38.592Z,12.61
2023-12-12T14:05:06.384Z,12.57
2023-12-12T14:07:33.451Z,12.54
2023-12-12T14:10:00.397Z,12.53
2023-12-12T14:12:27.386Z,12.50
2023-12-12T14:14:55.058Z,12.34
2023-12-12T14:17:22.005Z,12.33
2023-12-12T14:19:49.122Z,12.25
2023-12-12T14:22:16.004Z,12.13
2023-12-12T14:24:43.015Z,12.19
2023-12-12T14:27:09.793Z,12.20
2023-12-12T14:29:36.914Z,12.26
2023-12-12T14:32:03.936Z,12.08
2023-12-12T14:34:30.999Z,12.03
2023-12-12T14:36:58.254Z,12.01
2023-12-12T14:39:24.961Z,11.90
2023-12-12T14:41:51.733Z,11.84
2023-12-12T14:44:18.621Z,11.20
2023-12-12T14:46:45.798Z,10.82
2023-12-12T14:49:13.032Z,11.04
2023-12-12T14:51:39.821Z,11.18
2023-12-12T14:54:06.974Z,11.19
2023-12-12T14:56:36.644Z,11.21
2023-12-12T14:59:05.666Z,11.28
2023-12-12T15:01:32.816Z,11.27
2023-12-12T15:03:59.921Z,11.22
2023-12-12T15:06:28.234Z,11.20
2023-12-12T15:08:55.163Z,11.16
2023-12-12T15:11:22.195Z,10.49
2023-12-12T15:13:49.067Z,9.81
2023-12-12T15:16:16.179Z,9.88
2023-12-12T15:18:42.960Z,10.08
2023-12-12T15:21:13.576Z,10.22
2023-12-12T15:23:41.560Z,10.37
2023-12-12T15:26:08.553Z,10.15
2023-12-12T15:28:35.635Z,10.06
2023-12-12T15:31:02.868Z,10.11
2023-12-12T15:33:33.343Z,10.19
2023-12-12T15:36:06.511Z,10.03
2023-12-12T15:38:33.517Z,9.19
2023-12-12T15:41:00.249Z,8.81
2023-12-12T15:43:27.227Z,8.56
2023-12-12T15:45:54.160Z,8.65
2023-12-12T15:48:21.251Z,8.12
2023-12-12T15:50:48.199Z,8.23
2023-12-12T15:53:15.206Z,8.37
2023-12-12T15:55:42.423Z,8.56
2023-12-12T15:58:11.601Z,8.23
2023-12-12T16:00:38.485Z,7.79
2023-12-12T16:03:05.444Z,7.82
2023-12-12T16:05:34.462Z,7.72
2023-12-12T16:08:03.713Z,7.48
2023-12-12T16:10:30.607Z,7.23
2023-12-12T16:12:57.471Z,7.01
2023-12-12T16:15:24.187Z,7.30
2023-12-12T16:17:51.137Z,7.56
2023-12-12T16:20:18.085Z,8.03
2023-12-12T16:22:45.048Z,8.40
2023-12-12T16:25:13.090Z,8.54
2023-12-12T16:27:43.828Z,8.76
2023-12-12T16:30:11.235Z,8.77
2023-12-12T16:32:38.099Z,8.93
2023-12-12T16:35:05.404Z,9.04
2023-12-12T16:37:32.422Z,9.08
2023-12-12T16:39:59.490Z,9.25
2023-12-12T16:42:28.837Z,9.39
2023-12-12T16:44:57.061Z,9.47
2023-12-12T16:47:26.524Z,9.57
2023-12-12T16:49:53.545Z,9.67
2023-12-12T16:52:20.432Z,9.70
2023-12-12T16:54:47.685Z,9.65
2023-12-12T16:57:14.529Z,9.68
2023-12-12T16:59:41.272Z,9.67
2023-12-12T17:02:08.221Z,9.64
2023-12-12T17:04:35.242Z,9.60
2023-12-12T17:07:04.828Z,9.52
2023-12-12T17:09:31.877Z,9.52
2023-12-12T17:11:58.780Z,9.15
2023-12-12T17:14:25.620Z,8.94
2023-12-12T17:16:52.402Z,8.99
2023-12-12T17:19:23.330Z,9.21
2023-12-12T17:21:53.130Z,9.15
2023-12-12T17:24:20.169Z,9.19
2023-12-12T17:26:47.641Z,9.37
2023-12-12T17:29:17.105Z,9.29
2023-12-12T17:31:45.841Z,9.12
2023-12-12T17:34:13.160Z,9.21
2023-12-12T17:36:40.219Z,9.08
2023-12-12T17:39:07.385Z,8.95
2023-12-12T17:41:34.034Z,8.93
2023-12-12T17:44:00.869Z,8.95
2023-12-12T17:46:27.728Z,8.82
2023-12-12T17:48:54.470Z,8.73
2023-12-12T17:51:21.467Z,8.38
2023-12-12T17:53:48.217Z,8.45
2023-12-12T17:56:15.356Z,8.16
2023-12-12T17:58:42.303Z,8.26
2023-12-12T18:01:09.391Z,8.26
2023-12-12T18:03:36.222Z,7.94
2023-12-12T18:06:03.328Z,8.13
2023-12-12T18:08:30.081Z,7.99
2023-12-12T18:10:57.004Z,7.78
2023-12-12T18:13:24.196Z,7.77
2023-12-12T18:15:50.972Z,7.97
2023-12-12T18:18:18.395Z,8.06
2023-12-12T18:20:45.307Z,7.95
2023-12-12T18:23:12.248Z,7.84
2023-12-12T18:25:42.006Z,7.56
2023-12-12T18:28:10.334Z,7.69
2023-12-12T18:30:49.871Z,7.84
2023-12-12T18:33:18.521Z,7.73
2023-12-12T18:35:45.443Z,7.95
2023-12-12T18:38:12.368Z,8.04
2023-12-12T18:40:40.265Z,7.98
2023-12-12T18:43:07.294Z,7.93
2023-12-12T18:45:34.316Z,7.82
2023-12-12T18:48:01.314Z,7.60
2023-12-12T18:50:29.670Z,7.75
2023-12-12T18:52:57.622Z,7.75
2023-12-12T18:55:25.651Z,7.58
2023-12-12T18:57:53.053Z,7.76
2023-12-12T19:00:19.842Z,7.56
2023-12-12T19:02:46.766Z,7.51
2023-12-12T19:05:17.125Z,7.59
2023-12-12T19:07:45.239Z,7.81
2023-12-12T19:10:13.164Z,7.95
2023-12-12T19:12:44.518Z,7.95
2023-12-12T19:15:17.522Z,7.92
2023-12-12T19:17:48.131Z,7.60
2023-12-12T19:20:15.354Z,7.66
2023-12-12T19:22:42.193Z,7.46
2023-12-12T19:25:15.161Z,7.53
2023-12-12T19:27:42.179Z,7.53
2023-12-12T19:30:10.936Z,7.75
2023-12-12T19:32:40.050Z,7.63
2023-12-12T19:35:10.053Z,7.66
2023-12-12T19:37:38.477Z,7.41
2023-12-12T19:40:09.161Z,7.11
2023-12-12T19:42:36.363Z,7.29
2023-12-12T19:45:04.465Z,7.25
2023-12-12T19:47:32.238Z,7.34
2023-12-12T19:50:02.368Z,7.39
2023-12-12T19:52:32.800Z,7.43
2023-12-12T19:55:00.784Z,7.58
2023-12-12T19:57:27.536Z,7.52
2023-12-12T19:59:54.351Z,7.53
2023-12-12T20:02:21.252Z,7.56
2023-12-12T20:04:48.024Z,7.55
2023-12-12T20:07:15.030Z,7.35
2023-12-12T20:09:43.044Z,7.28
2023-12-12T20:12:11.255Z,7.33
2023-12-12T20:14:38.901Z,7.16
2023-12-12T20:17:06.728Z,7.23
2023-12-12T20:19:34.090Z,7.37
2023-12-12T20:22:01.060Z,7.47
2023-12-12T20:24:29.599Z,7.40
2023-12-12T20:26:56.405Z,7.47
2023-12-12T20:29:23.765Z,7.47
2023-12-12T20:31:50.752Z,7.41
2023-12-12T20:34:17.818Z,7.39
2023-12-12T20:36:44.764Z,7.41
2023-12-12T20:39:13.885Z,7.50
2023-12-12T20:41:44.821Z,7.05
2023-12-12T20:44:11.856Z,6.95
2023-12-12T20:46:42.681Z,6.84
2023-12-12T20:49:10.050Z,7.11
2023-12-12T20:51:39.798Z,6.95
2023-12-12T20:54:06.650Z,7.07
2023-12-12T20:56:35.124Z,7.08
2023-12-12T20:59:01.818Z,7.10
2023-12-12T21:01:28.778Z,7.05
2023-12-12T21:03:55.967Z,7.16
2023-12-12T21:06:22.734Z,7.25
2023-12-12T21:08:49.742Z,7.19
2023-12-12T21:11:16.511Z,7.12
2023-12-12T21:13:45.700Z,7.32
2023-12-12T21:16:18.653Z,7.36
2023-12-12T21:18:46.617Z,7.21
2023-12-12T21:21:13.584Z,7.20
2023-12-12T21:23:41.655Z,7.32
2023-12-12T21:26:09.104Z,7.07
2023-12-12T21:28:39.395Z,7.00
2023-12-12T21:31:07.699Z,7.25
2023-12-12T21:33:34.707Z,7.47
2023-12-12T21:36:01.921Z,7.60
2023-12-12T21:38:29.532Z,7.64
2023-12-12T21:40:56.949Z,7.58
2023-12-12T21:43:23.985Z,7.58
2023-12-12T21:45:50.965Z,7.61
2023-12-12T21:48:17.985Z,7.63
2023-12-12T21:50:45.666Z,7.46
2023-12-12T21:53:15.321Z,7.43
2023-12-12T21:55:42.157Z,7.20
2023-12-12T21:58:10.147Z,7.17
2023-12-12T22:00:36.906Z,7.20
2023-12-12T22:03:03.791Z,6.89
2023-12-12T22:05:30.507Z,6.46
2023-12-12T22:07:57.390Z,6.34
2023-12-12T22:10:24.539Z,6.31
2023-12-12T22:12:51.283Z,6.48
2023-12-12T22:15:17.940Z,6.55
2023-12-12T22:17:44.910Z,6.69
2023-12-12T22:20:12.434Z,6.84
2023-12-12T22:22:40.728Z,7.08
2023-12-12T22:25:11.723Z,7.30
2023-12-12T22:27:38.605Z,7.20
2023-12-12T22:30:06.601Z,7.20
2023-12-12T22:32:34.167Z,6.92
2023-12-12T22:35:01.162Z,6.81
2023-12-12T22:37:27.982Z,6.78
2023-12-12T22:39:54.884Z,6.82
2023-12-12T22:42:21.588Z,6.89
2023-12-12T22:44:48.454Z,6.90
2023-12-12T22:47:15.318Z,6.94
2023-12-12T22:49:42.057Z,6.76
2023-12-12T22:52:09.450Z,6.95
2023-12-12T22:54:36.434Z,6.98
2023-12-12T22:57:03.369Z,7.02
2023-12-12T22:59:30.157Z,7.16
2023-12-12T23:01:57.246Z,6.89
2023-12-12T23:04:24.692Z,7.05
2023-12-12T23:06:52.460Z,7.02
2023-12-12T23:09:23.292Z,6.95
2023-12-12T23:11:50.493Z,6.90
2023-12-12T23:14:17.518Z,6.97
2023-12-12T23:16:44.331Z,7.05
2023-12-12T23:19:11.367Z,7.10
2023-12-12T23:21:38.184Z,7.17
2023-12-12T23:24:05.951Z,7.06
2023-12-12T23:26:32.827Z,7.17
2023-12-12T23:29:00.045Z,7.05
2023-12-12T23:31:26.867Z,7.16
2023-12-12T23:33:54.091Z,7.30
2023-12-12T23:36:20.823Z,7.36
2023-12-12T23:38:47.551Z,7.38
2023-12-12T23:41:14.359Z,7.54
2023-12-12T23:43:41.190Z,7.68
2023-12-12T23:46:08.041Z,7.56
2023-12-12T23:48:38.121Z,7.68
2023-12-12T23:51:05.322Z,7.45
2023-12-12T23:53:34.720Z,7.26
2023-12-12T23:56:02.565Z,7.12
2023-12-12T23:58:29.537Z,7.35
